Time,TemperatureF,DewpointF,PressureIn,WindDirection,WindDirectionDegrees,WindSpeedMPH,WindSpeedGustMPH,Humidity,HourlyPrecipIn,Conditions,Clouds,dailyrainin,SolarRadiationWatts/m^2,SoftwareType,DateUTC
2013-04-28 00:21:00,47.0,9.0,-100.00,North,351,4.0,8.0,21,0.00,,,0.00,0.000000,,2013-04-28 06:21:00,
2013-04-28 00:32:00,47.0,9.0,-100.00,North,351,4.0,8.0,21,0.00,,,0.00,0.000000,,2013-04-28 06:32:00,
2013-04-28 00:42:00,47.0,9.0,-100.00,North,351,4.0,8.0,21,0.00,,,0.00,0.000000,,2013-04-28 06:42:00,
2013-04-28 00:51:00,47.0,9.0,-100.00,North,351,4.0,8.0,21,0.00,,,0.00,0.000000,,2013-04-28 06:51:00,
2013-04-28 01:21:00,44.0,10.0,-100.00,North,9,3.0,8.0,24,-99.99,,,0.00,0.000000,,2013-04-28 07:21:00,
2013-04-28 01:31:00,44.0,10.0,-100.00,North,9,3.0,8.0,24,-99.99,,,0.00,0.000000,,2013-04-28 07:31:00,
2013-04-28 01:42:00,44.0,10.0,-100.00,North,9,3.0,8.0,24,-99.99,,,0.00,0.000000,,2013-04-28 07:42:00,
2013-04-28 01:52:00,44.0,10.0,-100.00,North,9,3.0,8.0,24,-99.99,,,0.00,0.000000,,2013-04-28 07:52:00,
2013-04-28 02:21:00,44.0,9.0,-100.00,NNE,19,4.0,8.0,23,0.00,,,0.00,0.000000,,2013-04-28 08:21:00,
2013-04-28 02:32:00,44.0,9.0,-100.00,NNE,19,4.0,8.0,23,0.00,,,0.00,0.000000,,2013-04-28 08:32:00,
2013-04-28 02:42:00,44.0,9.0,-100.00,NNE,19,4.0,8.0,23,0.00,,,0.00,0.000000,,2013-04-28 08:42:00,
2013-04-28 02:51:00,44.0,9.0,-100.00,NNE,19,4.0,8.0,23,0.00,,,0.00,0.000000,,2013-04-28 08:51:00,
2013-04-28 03:21:00,43.0,8.0,-100.00,NNE,19,5.0,7.0,23,0.00,,,0.00,0.000000,,2013-04-28 09:21:00,
2013-04-28 03:33:00,43.0,8.0,-100.00,NNE,19,5.0,7.0,23,0.00,,,0.00,0.000000,,2013-04-28 09:33:00,
2013-04-28 04:22:00,44.0,8.0,-100.00,NNE,21,3.0,8.0,22,0.00,,,0.00,0.000000,,2013-04-28 10:22:00,
2013-04-28 05:22:00,42.0,8.0,-100.00,NNE,24,4.0,7.0,24,-99.99,,,0.00,0.000000,,2013-04-28 11:22:00,
2013-04-28 05:32:00,42.0,8.0,-100.00,NNE,24,4.0,7.0,24,-99.99,,,0.00,0.000000,,2013-04-28 11:32:00,
2013-04-28 06:21:00,40.0,9.0,-100.00,North,7,3.0,6.0,27,0.00,,,0.00,0.000000,,2013-04-28 12:21:00,
2013-04-28 07:21:00,41.0,9.0,-100.00,NE,45,1.0,7.0,26,0.00,,,0.00,10.000000,,2013-04-28 13:21:00,
2013-04-28 07:42:00,41.0,9.0,-100.00,NE,45,1.0,7.0,26,0.00,,,0.00,10.000000,,2013-04-28 13:42:00,
2013-04-28 07:52:00,41.0,9.0,-100.00,NE,45,1.0,7.0,26,0.00,,,0.00,10.000000,,2013-04-28 13:52:00,
2013-04-28 08:21:00,47.0,15.0,-100.00,SE,132,1.0,6.0,27,0.00,,,0.00,114.000000,,2013-04-28 14:21:00,
2013-04-28 09:21:00,53.0,20.0,-100.00,SSE,161,3.0,4.0,27,0.00,,,0.00,391.000000,,2013-04-28 15:21:00,
2013-04-28 09:42:00,53.0,20.0,-100.00,SSE,161,3.0,4.0,27,0.00,,,0.00,391.000000,,2013-04-28 15:42:00,
2013-04-28 09:53:00,53.0,20.0,-100.00,SSE,161,3.0,4.0,27,0.00,,,0.00,391.000000,,2013-04-28 15:53:00,
2013-04-28 10:23:00,59.0,11.0,-100.00,South,190,4.0,7.0,15,0.00,,,0.00,602.000000,,2013-04-28 16:23:00,
2013-04-28 10:32:00,59.0,11.0,-100.00,South,190,4.0,7.0,15,0.00,,,0.00,602.000000,,2013-04-28 16:32:00,
2013-04-28 10:42:00,59.0,11.0,-100.00,South,190,4.0,7.0,15,0.00,,,0.00,602.000000,,2013-04-28 16:42:00,
2013-04-28 10:52:00,59.0,11.0,-100.00,South,190,4.0,7.0,15,0.00,,,0.00,602.000000,,2013-04-28 16:52:00,
2013-04-28 11:21:00,63.0,11.0,-100.00,SSW,211,5.0,11.0,13,0.00,,,0.00,782.000000,,2013-04-28 17:21:00,
2013-04-28 11:32:00,63.0,11.0,-100.00,SSW,211,5.0,11.0,13,0.00,,,0.00,782.000000,,2013-04-28 17:32:00,
2013-04-28 11:42:00,63.0,11.0,-100.00,SSW,211,5.0,11.0,13,0.00,,,0.00,782.000000,,2013-04-28 17:42:00,
2013-04-28 11:51:00,63.0,11.0,-100.00,SSW,211,5.0,11.0,13,0.00,,,0.00,782.000000,,2013-04-28 17:51:00,
2013-04-28 12:22:00,66.0,8.0,-100.00,SSW,196,7.0,13.0,10,0.00,,,0.00,917.000000,,2013-04-28 18:22:00,
2013-04-28 12:32:00,66.0,8.0,-100.00,SSW,196,7.0,13.0,10,0.00,,,0.00,917.000000,,2013-04-28 18:32:00,
2013-04-28 12:42:00,66.0,8.0,-100.00,SSW,196,7.0,13.0,10,0.00,,,0.00,917.000000,,2013-04-28 18:42:00,
2013-04-28 12:51:00,66.0,8.0,-100.00,SSW,196,7.0,13.0,10,0.00,,,0.00,917.000000,,2013-04-28 18:51:00,
2013-04-28 13:21:00,69.0,10.0,-100.00,SSW,203,6.0,13.0,10,0.00,,,0.00,993.000000,,2013-04-28 19:21:00,
2013-04-28 13:31:00,69.0,10.0,-100.00,SSW,203,6.0,13.0,10,0.00,,,0.00,993.000000,,2013-04-28 19:31:00,
2013-04-28 13:41:00,69.0,10.0,-100.00,SSW,203,6.0,13.0,10,0.00,,,0.00,993.000000,,2013-04-28 19:41:00,
2013-04-28 13:52:00,69.0,10.0,-100.00,SSW,203,6.0,13.0,10,0.00,,,0.00,993.000000,,2013-04-28 19:52:00,
2013-04-28 14:22:00,70.0,9.0,-100.00,SSW,201,9.0,16.0,9,0.00,,,0.00,1008.000000,,2013-04-28 20:22:00,
2013-04-28 14:32:00,70.0,9.0,-100.00,SSW,201,9.0,16.0,9,0.00,,,0.00,1008.000000,,2013-04-28 20:32:00,
2013-04-28 14:41:00,70.0,9.0,-100.00,SSW,201,9.0,16.0,9,0.00,,,0.00,1008.000000,,2013-04-28 20:41:00,
2013-04-28 14:51:00,70.0,9.0,-100.00,SSW,201,9.0,16.0,9,0.00,,,0.00,1008.000000,,2013-04-28 20:51:00,
2013-04-28 15:22:00,72.0,10.0,-100.00,SSW,193,9.0,17.0,9,0.00,,,0.00,959.000000,,2013-04-28 21:22:00,
2013-04-28 15:32:00,72.0,10.0,-100.00,SSW,193,9.0,17.0,9,0.00,,,0.00,959.000000,,2013-04-28 21:32:00,
2013-04-28 15:42:00,72.0,10.0,-100.00,SSW,193,9.0,17.0,9,0.00,,,0.00,959.000000,,2013-04-28 21:42:00,
2013-04-28 15:52:00,72.0,10.0,-100.00,SSW,193,9.0,17.0,9,0.00,,,0.00,959.000000,,2013-04-28 21:52:00,
2013-04-28 16:22:00,72.0,10.0,-100.00,West,269,9.0,17.0,9,0.00,,,0.00,837.000000,,2013-04-28 22:22:00,
2013-04-28 16:33:00,72.0,10.0,-100.00,West,269,9.0,17.0,9,0.00,,,0.00,837.000000,,2013-04-28 22:33:00,
2013-04-28 16:42:00,72.0,10.0,-100.00,West,269,9.0,17.0,9,0.00,,,0.00,837.000000,,2013-04-28 22:42:00,
2013-04-28 16:52:00,72.0,10.0,-100.00,West,269,9.0,17.0,9,0.00,,,0.00,837.000000,,2013-04-28 22:52:00,
2013-04-28 17:22:00,71.0,12.0,-100.00,WNW,282,10.0,19.0,10,0.00,,,0.00,691.000000,,2013-04-28 23:22:00,
2013-04-28 17:32:00,71.0,12.0,-100.00,WNW,282,10.0,19.0,10,0.00,,,0.00,691.000000,,2013-04-28 23:32:00,
2013-04-28 17:41:00,71.0,12.0,-100.00,WNW,282,10.0,19.0,10,0.00,,,0.00,691.000000,,2013-04-28 23:41:00,
2013-04-28 17:51:00,71.0,12.0,-100.00,WNW,282,10.0,19.0,10,0.00,,,0.00,691.000000,,2013-04-28 23:51:00,
2013-04-28 18:22:00,70.0,11.0,-100.00,West,271,6.0,19.0,10,0.00,,,0.00,458.000000,,2013-04-29 00:22:00,
2013-04-28 18:32:00,70.0,11.0,-100.00,West,271,6.0,19.0,10,0.00,,,0.00,458.000000,,2013-04-29 00:32:00,
2013-04-28 18:41:00,70.0,11.0,-100.00,West,271,6.0,19.0,10,0.00,,,0.00,458.000000,,2013-04-29 00:41:00,
2013-04-28 18:52:00,70.0,11.0,-100.00,West,271,6.0,19.0,10,0.00,,,0.00,458.000000,,2013-04-29 00:52:00,
2013-04-28 19:21:00,69.0,12.0,-100.00,WNW,282,7.0,14.0,11,0.00,,,0.00,254.000000,,2013-04-29 01:21:00,
2013-04-28 19:32:00,69.0,12.0,-100.00,WNW,282,7.0,14.0,11,0.00,,,0.00,254.000000,,2013-04-29 01:32:00,
2013-04-28 19:41:00,69.0,12.0,-100.00,WNW,282,7.0,14.0,11,0.00,,,0.00,254.000000,,2013-04-29 01:41:00,
2013-04-28 19:52:00,69.0,12.0,-100.00,WNW,282,7.0,14.0,11,0.00,,,0.00,254.000000,,2013-04-29 01:52:00,
2013-04-28 20:21:00,63.0,13.0,-100.00,West,276,3.0,13.0,14,0.00,,,0.00,44.000000,,2013-04-29 02:21:00,
2013-04-28 20:32:00,63.0,13.0,-100.00,West,276,3.0,13.0,14,0.00,,,0.00,44.000000,,2013-04-29 02:32:00,
2013-04-28 20:41:00,63.0,13.0,-100.00,West,276,3.0,13.0,14,0.00,,,0.00,44.000000,,2013-04-29 02:41:00,
2013-04-28 20:51:00,63.0,13.0,-100.00,West,276,3.0,13.0,14,0.00,,,0.00,44.000000,,2013-04-29 02:51:00,
2013-04-28 21:21:00,60.0,12.0,-100.00,NNW,347,4.0,9.0,15,0.00,,,0.00,0.000000,,2013-04-29 03:21:00,
2013-04-28 21:33:00,60.0,12.0,-100.00,NNW,347,4.0,9.0,15,0.00,,,0.00,0.000000,,2013-04-29 03:33:00,
2013-04-28 21:42:00,60.0,12.0,-100.00,NNW,347,4.0,9.0,15,0.00,,,0.00,0.000000,,2013-04-29 03:42:00,
2013-04-28 21:52:00,60.0,12.0,-100.00,NNW,347,4.0,9.0,15,0.00,,,0.00,0.000000,,2013-04-29 03:52:00,
2013-04-28 22:23:00,58.0,13.0,-100.00,NNW,333,6.0,10.0,17,0.00,,,0.00,0.000000,,2013-04-29 04:23:00,
2013-04-28 22:33:00,58.0,13.0,-100.00,NNW,333,6.0,10.0,17,0.00,,,0.00,0.000000,,2013-04-29 04:33:00,
2013-04-28 22:43:00,58.0,13.0,-100.00,NNW,333,6.0,10.0,17,0.00,,,0.00,0.000000,,2013-04-29 04:43:00,
2013-04-28 22:52:00,58.0,13.0,-100.00,NNW,333,6.0,10.0,17,0.00,,,0.00,0.000000,,2013-04-29 04:52:00,
2013-04-28 23:22:00,54.0,15.0,-100.00,NNE,13,9.0,11.0,21,-99.99,,,0.00,0.000000,,2013-04-29 05:22:00,
2013-04-28 23:32:00,54.0,15.0,-100.00,NNE,13,9.0,11.0,21,-99.99,,,0.00,0.000000,,2013-04-29 05:32:00,
2013-04-28 23:42:00,54.0,15.0,-100.00,NNE,13,9.0,11.0,21,-99.99,,,0.00,0.000000,,2013-04-29 05:42:00,
2013-04-28 23:52:00,54.0,15.0,-100.00,NNE,13,9.0,11.0,21,-99.99,,,0.00,0.000000,,2013-04-29 05:52:00,